Time;durP1;ratioP1;P1;durP2;ratioP2;P2;SDS_P1;SDS_P2;PMS_P1;PMS_P2;Temp;Humidity;BMP_temperature;BMP_pressure;BME280_temperature;BME280_humidity;BME280_pressure;Samples;Min_cycle;Max_cycle;Signal;HPM_P1;HPM_P2
2022/09/15 00:03:45;;;;;;;10.10;2.15;;;;;;;11.45;100.00;100259.88;12877448;22;20008;-86
2022/09/15 00:08:45;;;;;;;6.85;2.05;;;;;;;11.87;100.00;100316.66;12748797;22;20017;-86
2022/09/15 00:13:46;;;;;;;6.80;1.88;;;;;;;11.16;100.00;100237.53;12749566;22;20007;-86
2022/09/15 00:18:46;;;;;;;4.43;1.73;;;;;;;11.58;100.00;100272.28;12747857;22;20453;-86
2022/09/15 00:23:47;;;;;;;11.13;3.83;;;;;;;11.42;100.00;100274.19;12874706;22;20013;-86
2022/09/15 00:28:47;;;;;;;5.32;2.15;;;;;;;11.74;100.00;100320.00;12748379;22;20025;-86
2022/09/15 00:33:49;;;;;;;3.47;2.50;;;;;;;12.03;100.00;100371.84;12748194;22;20063;-86
2022/09/15 00:38:50;;;;;;;6.10;2.42;;;;;;;12.22;100.00;100413.53;12726608;22;20001;-86
2022/09/15 00:44:01;;;;;;;8.27;3.60;;;;;;;12.88;100.00;100482.50;12760704;22;20442;-86
2022/09/15 00:49:13;;;;;;;6.35;4.15;;;;;;;11.24;100.00;100208.59;13111772;22;20021;-86
2022/09/15 00:54:42;;;;;;;5.47;2.88;;;;;;;12.11;100.00;100361.13;13134260;22;20014;-86
2022/09/15 00:59:43;;;;;;;11.60;3.00;;;;;;;12.02;100.00;100328.84;13111325;22;20006;-92
2022/09/15 01:04:43;;;;;;;11.13;2.95;;;;;;;12.48;100.00;100383.97;13088276;22;20029;-92
2022/09/15 01:10:01;;;;;;;6.47;3.15;;;;;;;11.88;100.00;100288.00;13115635;22;20022;-92
2022/09/15 01:15:02;;;;;;;7.05;2.78;;;;;;;12.19;100.00;100318.31;13091882;22;20034;-92
2022/09/15 01:20:24;;;;;;;6.85;2.90;;;;;;;13.29;100.00;100476.03;13077854;22;20005;-92
2022/09/15 01:25:27;;;;;;;6.35;2.60;;;;;;;13.29;100.00;100476.88;13139380;22;20023;-92
2022/09/15 01:30:31;;;;;;;6.63;2.47;;;;;;;12.10;100.00;100300.69;13141432;22;20002;-92
2022/09/15 01:35:34;;;;;;;4.85;2.83;;;;;;;12.95;100.00;100417.81;13113460;22;20388;-86
2022/09/15 01:40:38;;;;;;;9.05;2.47;;;;;;;12.69;100.00;100428.91;13135006;22;20356;-86
2022/09/15 01:45:40;;;;;;;6.78;1.98;;;;;;;11.90;100.00;100246.34;13083724;22;20366;-86
2022/09/15 01:50:43;;;;;;;4.78;2.47;;;;;;;12.00;100.00;100267.59;12977550;22;20010;-87
2022/09/15 01:55:55;;;;;;;7.15;1.45;;;;;;;12.72;100.00;100393.28;13108394;22;20029;-87
2022/09/15 02:00:59;;;;;;;6.78;1.70;;;;;;;12.81;100.00;100410.09;13109896;22;20033;-87
2022/09/15 02:06:03;;;;;;;9.35;1.77;;;;;;;11.89;100.00;100278.63;13081862;22;20021;-87
2022/09/15 02:11:03;;;;;;;7.70;1.55;;;;;;;13.44;100.00;100500.88;13108616;22;20036;-87
2022/09/15 02:16:05;;;;;;;6.35;1.65;;;;;;;11.59;100.00;100212.44;13161039;22;20302;-87
2022/09/15 02:21:18;;;;;;;8.95;1.80;;;;;;;12.88;100.00;100410.66;13108797;22;20002;-86
2022/09/15 02:26:23;;;;;;;8.05;2.13;;;;;;;11.91;100.00;100283.88;13107191;22;20093;-86
2022/09/15 02:31:24;;;;;;;8.77;2.20;;;;;;;12.37;100.00;100374.06;13110281;22;20002;-86
2022/09/15 02:36:24;;;;;;;5.32;2.03;;;;;;;13.08;100.00;100492.69;13108301;22;20412;-92
2022/09/15 02:41:25;;;;;;;6.95;2.95;;;;;;;12.23;100.00;100360.81;13114512;22;20013;-92
2022/09/15 02:46:26;;;;;;;4.35;1.52;;;;;;;11.96;100.00;100355.59;13088233;22;20025;-93
2022/09/15 02:51:27;;;;;;;10.15;2.50;;;;;;;12.67;100.00;100437.50;13086780;22;20027;-93
2022/09/15 02:56:27;;;;;;;6.05;1.23;;;;;;;12.20;100.00;100358.63;13114137;22;20006;-92
2022/09/15 03:01:33;;;;;;;9.48;1.15;;;;;;;11.84;100.00;100338.47;13114955;22;20363;-93
2022/09/15 03:06:34;;;;;;;7.10;0.95;;;;;;;11.98;100.00;100324.97;13115028;22;20025;-93
2022/09/15 03:11:34;;;;;;;8.90;1.65;;;;;;;11.85;100.00;100305.09;13113929;22;20309;-93
2022/09/15 03:16:35;;;;;;;9.18;1.02;;;;;;;12.34;100.00;100443.59;13113307;22;19995;-92
2022/09/15 03:21:36;;;;;;;6.15;1.08;;;;;;;11.94;100.00;100334.91;13086549;22;20002;-92
2022/09/15 03:26:37;;;;;;;6.22;0.95;;;;;;;11.47;100.00;100282.50;12983666;22;20042;-92
2022/09/15 03:31:37;;;;;;;6.85;1.00;;;;;;;11.91;100.00;100323.31;13071859;22;20440;-92
2022/09/15 03:36:38;;;;;;;5.82;0.80;;;;;;;11.87;100.00;100318.63;13086281;22;20026;-91
2022/09/15 03:41:38;;;;;;;5.43;0.93;;;;;;;11.99;100.00;100334.88;13086457;22;20025;-92
2022/09/15 03:46:39;;;;;;;4.90;0.68;;;;;;;11.42;100.00;100229.28;13112994;22;20022;-92
2022/09/15 03:51:40;;;;;;;8.10;0.80;;;;;;;11.88;100.00;100310.06;12918949;22;20034;-92
2022/09/15 03:56:41;;;;;;;4.88;0.77;;;;;;;11.63;100.00;100268.69;13047209;22;19998;-86
2022/09/15 04:01:42;;;;;;;4.90;0.95;;;;;;;11.83;100.00;100295.44;13080747;22;20002;-87
2022/09/15 04:06:43;;;;;;;3.65;0.88;;;;;;;12.45;100.00;100434.22;13132790;22;20034;-86
2022/09/15 04:11:44;;;;;;;8.20;1.13;;;;;;;12.95;100.00;100509.00;13106415;22;20002;-86
2022/09/15 04:16:44;;;;;;;5.65;1.00;;;;;;;12.59;100.00;100440.84;12997492;22;20010;-87
2022/09/15 04:21:53;;;;;;;6.05;0.93;;;;;;;11.26;100.00;100270.59;13003216;22;20056;-86
2022/09/15 04:26:56;;;;;;;4.20;1.17;;;;;;;11.29;100.00;100291.28;13018341;22;20286;-86
2022/09/15 04:31:57;;;;;;;10.20;2.05;;;;;;;11.12;100.00;100247.47;12989431;22;20006;-86
2022/09/15 04:37:03;;;;;;;8.68;1.13;;;;;;;11.31;100.00;100256.03;12952342;22;20081;-86
2022/09/15 04:42:06;;;;;;;4.53;0.73;;;;;;;11.60;100.00;100318.88;13020004;22;20015;-86
2022/09/15 04:47:14;;;;;;;10.18;1.33;;;;;;;11.66;100.00;100309.53;12992767;22;20023;-86
2022/09/15 04:52:25;;;;;;;6.82;1.08;;;;;;;10.97;100.00;100252.94;12937744;22;20495;-86
2022/09/15 04:57:25;;;;;;;7.57;1.00;;;;;;;12.19;100.00;100464.56;13098477;22;20009;-92
2022/09/15 05:02:26;;;;;;;11.52;2.10;;;;;;;11.78;100.00;100406.59;13031038;22;20002;-86
2022/09/15 05:07:26;;;;;;;17.08;3.30;;;;;;;10.78;100.00;100274.63;13042248;22;20537;-86
2022/09/15 05:12:27;;;;;;;4.40;0.90;;;;;;;11.43;100.00;100358.56;13042288;22;20034;-85
2022/09/15 05:17:30;;;;;;;5.35;1.33;;;;;;;11.14;100.00;100338.09;13043306;22;20011;-85
2022/09/15 05:22:30;;;;;;;6.93;1.63;;;;;;;11.38;100.00;100353.03;13043879;22;20328;-86
2022/09/15 05:27:32;;;;;;;8.13;1.33;;;;;;;10.83;100.00;100280.16;13044595;22;20065;-86
2022/09/15 05:32:33;;;;;;;12.18;1.30;;;;;;;10.96;100.00;100320.97;13046100;22;20432;-86
2022/09/15 05:37:33;;;;;;;7.10;1.40;;;;;;;11.22;100.00;100367.88;13044552;22;20010;-86
2022/09/15 05:42:34;;;;;;;7.90;1.40;;;;;;;10.94;100.00;100268.06;13020191;22;20006;-86
2022/09/15 05:47:34;;;;;;;14.18;2.65;;;;;;;11.25;100.00;100306.72;12831527;22;20045;-86
2022/09/15 05:52:36;;;;;;;12.38;1.90;;;;;;;11.44;100.00;100327.13;12853059;22;20094;-85
2022/09/15 05:57:37;;;;;;;11.25;2.47;;;;;;;11.93;100.00;100394.78;12827143;22;20431;-86
2022/09/15 06:02:37;;;;;;;10.35;1.95;;;;;;;11.46;100.00;100322.16;12852524;22;20005;-86
2022/09/15 06:07:38;;;;;;;11.65;2.17;;;;;;;12.15;100.00;100441.41;12850649;22;20024;-86
2022/09/15 06:12:38;;;;;;;12.13;2.22;;;;;;;11.79;100.00;100366.88;12748730;23;20427;-86
2022/09/15 06:17:39;;;;;;;13.93;1.88;;;;;;;11.67;100.00;100308.41;12746221;23;20012;-86
2022/09/15 06:22:39;;;;;;;4.82;1.10;;;;;;;12.68;100.00;100454.91;12851313;22;20001;-86
2022/09/15 06:27:40;;;;;;;10.55;1.35;;;;;;;12.12;100.00;100331.59;12743168;23;20020;-86
2022/09/15 06:32:41;;;;;;;10.98;1.75;;;;;;;12.54;100.00;100379.25;12849040;22;20032;-86
2022/09/15 06:37:41;;;;;;;5.10;0.82;;;;;;;12.54;100.00;100379.25;12847931;22;20386;-86
2022/09/15 06:42:42;;;;;;;9.05;1.25;;;;;;;12.51;100.00;100358.56;12719612;23;20017;-86
2022/09/15 06:47:42;;;;;;;6.05;0.95;;;;;;;13.18;100.00;100441.22;13041715;22;20027;-86
2022/09/15 06:52:43;;;;;;;2.25;0.98;;;;;;;12.97;100.00;100347.34;13040601;22;20034;-86
2022/09/15 06:57:43;;;;;;;12.43;1.60;;;;;;;12.60;100.00;100267.69;13042113;22;20022;-86
2022/09/15 07:02:48;;;;;;;4.35;0.85;;;;;;;13.07;100.00;100302.25;13041628;22;20333;-86
2022/09/15 07:07:48;;;;;;;6.25;1.02;;;;;;;13.90;100.00;100378.88;13029165;22;20660;-87
2022/09/15 07:12:49;;;;;;;5.10;1.55;;;;;;;14.28;100.00;100409.59;13014064;22;20002;-87
2022/09/15 07:17:49;;;;;;;8.63;1.00;;;;;;;14.27;100.00;100437.56;13039911;22;20017;-89
2022/09/15 07:22:50;;;;;;;5.50;1.30;;;;;;;13.77;100.00;100324.22;12986914;22;20306;-87
2022/09/15 07:27:50;;;;;;;6.28;0.65;;;;;;;14.75;100.00;100478.44;13003281;22;20026;-88
2022/09/15 07:32:51;;;;;;;10.80;1.10;;;;;;;14.07;100.00;100330.59;13014046;22;20007;-88
2022/09/15 07:37:51;;;;;;;11.25;1.17;;;;;;;14.50;100.00;100386.09;13039407;22;20317;-87
2022/09/15 07:42:52;;;;;;;4.00;0.93;;;;;;;14.25;100.00;100313.25;13014091;22;20026;-87
2022/09/15 07:47:53;;;;;;;3.67;0.95;;;;;;;14.77;100.00;100393.88;12785787;22;20099;-88
2022/09/15 07:52:55;;;;;;;8.25;1.48;;;;;;;14.58;100.00;100345.91;12871541;22;20005;-87
2022/09/15 07:57:59;;;;;;;3.55;0.80;;;;;;;14.80;100.00;100384.13;12762242;22;20009;-86
2022/09/15 08:02:59;;;;;;;5.20;0.80;;;;;;;15.59;100.00;100498.28;12745832;23;20005;-92
2022/09/15 08:08:00;;;;;;;5.03;0.70;;;;;;;14.91;100.00;100394.00;12850029;22;20021;-92
2022/09/15 08:13:01;;;;;;;4.53;1.02;;;;;;;15.89;100.00;100547.00;12784601;22;20005;-85
2022/09/15 08:18:02;;;;;;;11.85;1.35;;;;;;;14.30;100.00;100331.75;12769718;23;20012;-94
2022/09/15 08:23:03;;;;;;;4.13;0.88;;;;;;;14.67;100.00;100383.72;12795871;22;20001;-95
2022/09/15 08:28:03;;;;;;;5.10;0.77;;;;;;;15.25;100.00;100479.81;12779654;22;20052;-93
2022/09/15 08:33:04;;;;;;;6.75;0.73;;;;;;;15.41;100.00;100413.88;12764078;22;20375;-96
2022/09/15 08:38:04;;;;;;;3.15;0.77;;;;;;;15.03;100.00;100330.66;12747063;23;20037;-94
2022/09/15 08:43:14;;;;;;;9.13;1.30;;;;;;;16.46;100.00;100560.13;12746094;23;20009;-93
2022/09/15 08:48:15;;;;;;;7.82;1.23;;;;;;;16.13;100.00;100496.97;12709304;23;20028;-90
2022/09/15 08:53:27;;;;;;;5.43;0.95;;;;;;;16.25;100.00;100454.06;12720983;23;20119;-94
2022/09/15 08:58:29;;;;;;;4.28;0.73;;;;;;;15.61;100.00;100450.81;12723587;23;20016;-93
2022/09/15 09:03:51;;;;;;;5.85;1.40;;;;;;;15.78;100.00;100631.56;12748015;23;20009;-94
2022/09/15 09:08:59;;;;;;;5.97;0.88;;;;;;;13.72;100.00;100468.94;12772963;23;20450;-95
2022/09/15 09:14:31;;;;;;;11.48;1.33;;;;;;;14.88;100.00;100627.38;12769558;23;20009;-87
2022/09/15 09:19:56;;;;;;;5.15;1.10;;;;;;;13.87;100.00;100487.38;12663897;23;20105;-87
2022/09/15 09:24:57;;;;;;;6.57;1.30;;;;;;;13.56;100.00;100408.44;12735404;23;20012;-86
2022/09/15 09:30:19;;;;;;;12.18;1.55;;;;;;;14.94;100.00;100631.78;12850244;22;20044;-86
2022/09/15 09:35:33;;;;;;;7.07;0.93;;;;;;;14.97;100.00;100584.09;12746276;23;20009;-94
2022/09/15 09:40:35;;;;;;;4.50;0.90;;;;;;;15.45;100.00;100592.47;12845162;22;20312;-95
2022/09/15 09:45:36;;;;;;;7.30;1.05;;;;;;;14.89;100.00;100454.44;12955369;22;20049;-94
2022/09/15 09:50:43;;;;;;;9.05;1.65;;;;;;;14.60;100.00;100435.91;13111471;22;20009;-93
2022/09/15 09:55:44;;;;;;;;;;;;;;;15.87;100.00;100621.44;13112685;22;20040;-93
2022/09/15 10:00:45;;;;;;;5.15;1.23;;;;;;;14.86;100.00;100443.94;13115789;22;19905;-94
2022/09/15 10:05:59;;;;;;;4.85;1.00;;;;;;;15.03;100.00;100466.50;12950656;22;20018;-94
2022/09/15 10:11:03;;;;;;;4.80;0.70;;;;;;;14.81;100.00;100394.13;13110864;22;20490;-93
2022/09/15 10:16:04;;;;;;;7.97;1.10;;;;;;;15.89;100.00;100569.22;13107937;22;20086;-92
2022/09/15 10:21:06;;;;;;;4.95;1.45;;;;;;;14.87;100.00;100404.03;13082411;22;20006;-94
2022/09/15 10:26:32;;;;;;;7.65;1.02;;;;;;;16.02;100.00;100609.34;13083163;22;20072;-92
2022/09/15 10:31:33;;;;;;;1.70;0.60;;;;;;;14.69;100.00;100420.28;13137505;22;20001;-92
2022/09/15 10:36:33;;;;;;;6.53;0.80;;;;;;;15.98;100.00;100565.78;13109761;22;19998;-93
2022/09/15 10:41:38;;;;;;;5.35;1.00;;;;;;;15.21;100.00;100426.06;13083279;22;20002;-93
2022/09/15 10:46:47;;;;;;;2.70;0.90;;;;;;;16.91;100.00;100605.00;13109481;22;20021;-93
2022/09/15 10:52:21;;;;;;;1.83;0.50;;;;;;;17.53;100.00;100599.19;13134881;22;20026;-92
2022/09/15 10:57:49;;;;;;;4.43;1.13;;;;;;;16.63;100.00;100443.66;13117365;22;20009;-93
2022/09/15 11:03:18;;;;;;;8.52;0.98;;;;;;;16.19;100.00;100583.03;13106983;22;20089;-92
2022/09/15 11:08:25;;;;;;;7.18;1.10;;;;;;;15.59;100.00;100658.38;13141127;22;20420;-92
2022/09/15 11:13:50;;;;;;;5.65;1.08;;;;;;;13.88;100.00;100499.28;13108686;22;20002;-95
2022/09/15 11:18:51;;;;;;;5.95;1.00;;;;;;;14.77;100.00;100667.41;13109314;22;20367;-95
2022/09/15 11:24:19;;;;;;;8.13;1.10;;;;;;;14.40;100.00;100657.63;13119587;22;20007;-94
2022/09/15 11:29:26;;;;;;;4.47;1.05;;;;;;;13.00;100.00;100413.13;13134527;22;20010;-94
2022/09/15 11:34:33;;;;;;;5.35;1.00;;;;;;;14.43;100.00;100565.66;13081708;22;20024;-94
2022/09/15 11:39:36;;;;;;;3.67;1.00;;;;;;;14.63;100.00;100495.44;13110226;22;20001;-93
2022/09/15 11:44:38;;;;;;;5.30;1.15;;;;;;;14.77;100.00;100465.09;13109628;22;19998;-94
2022/09/15 11:49:44;;;;;;;4.18;0.70;;;;;;;15.12;100.00;100412.03;13083529;22;20015;-94
2022/09/15 11:54:57;;;;;;;4.45;0.77;;;;;;;16.45;100.00;100480.66;13109690;22;20007;-94
2022/09/15 12:00:18;;;;;;;4.72;0.80;;;;;;;16.14;100.00;100404.22;13083364;22;20022;-96
2022/09/15 12:05:45;;;;;;;5.65;0.73;;;;;;;17.12;100.00;100560.97;13110788;22;19995;-96
2022/09/15 12:10:51;;;;;;;1.92;0.80;;;;;;;15.77;100.00;100398.69;13114294;22;20014;-92
2022/09/15 12:15:51;;;;;;;5.40;0.85;;;;;;;15.91;100.00;100433.72;13082089;22;20014;-92
2022/09/15 12:20:57;;;;;;;2.40;0.68;;;;;;;17.97;100.00;100613.66;13081092;22;20010;-93
2022/09/15 12:26:01;;;;;;;5.25;0.70;;;;;;;18.02;100.00;100502.13;13133787;22;20089;-91
2022/09/15 12:31:22;;;;;;;7.40;1.25;;;;;;;18.03;100.00;100503.78;13137221;22;20049;-91
2022/09/15 12:36:38;;;;;;;5.13;0.60;;;;;;;17.52;100.00;100561.34;13110378;22;20013;-86
2022/09/15 12:41:51;;;;;;;3.50;0.90;;;;;;;17.05;100.00;100544.72;13101035;22;19986;-91
2022/09/15 12:46:52;;;;;;;4.78;1.00;;;;;;;17.39;100.00;100382.09;13097075;22;20451;-93
2022/09/15 12:51:53;;;;;;;5.88;0.80;;;;;;;18.89;100.00;100534.31;13110258;22;20310;-91
2022/09/15 12:56:54;;;;;;;5.22;0.98;;;;;;;18.85;100.00;100580.72;12954682;22;20014;-94
2022/09/15 13:01:54;;;;;;;2.70;0.68;;;;;;;18.34;100.00;100428.63;12946629;22;20081;-88
2022/09/15 13:07:13;;;;;;;3.47;0.70;;;;;;;19.27;100.00;100609.19;13109381;22;20469;-94
2022/09/15 13:12:14;;;;;;;5.15;0.65;;;;;;;18.16;100.00;100349.66;13140223;22;20085;-96
2022/09/15 13:17:17;;;;;;;5.50;0.70;;;;;;;20.20;100.00;100484.47;13087408;22;20021;-94
2022/09/15 13:22:33;;;;;;;6.13;0.85;;;;;;;20.55;97.73;100453.69;13086912;22;20003;-95
2022/09/15 13:27:37;;;;;;;3.85;0.95;;;;;;;19.91;94.07;100424.47;13114901;22;20007;-94
2022/09/15 13:33:04;;;;;;;6.68;1.38;;;;;;;18.63;99.43;100469.97;13112661;22;20009;-93
2022/09/15 13:38:29;;;;;;;6.03;1.38;;;;;;;18.83;100.00;100610.03;13114700;22;20002;-94
2022/09/15 13:43:36;;;;;;;7.68;1.60;;;;;;;18.14;100.00;100631.34;13136506;22;20086;-93
2022/09/15 13:48:49;;;;;;;6.18;1.20;;;;;;;16.78;100.00;100577.94;13086348;22;20513;-94
2022/09/15 13:53:52;;;;;;;10.30;1.20;;;;;;;16.31;100.00;100539.78;13071324;22;20007;-86
2022/09/15 13:58:55;;;;;;;4.95;1.15;;;;;;;16.13;100.00;100521.16;12995431;22;20025;-87
2022/09/15 14:03:58;;;;;;;6.53;1.00;;;;;;;15.91;100.00;100503.13;13047838;22;20009;-90
2022/09/15 14:09:00;;;;;;;3.90;0.73;;;;;;;15.87;100.00;100545.66;13046986;22;20018;-90
2022/09/15 14:14:01;;;;;;;6.47;1.00;;;;;;;13.61;100.00;100535.66;13042912;22;19999;-92
2022/09/15 14:19:29;;;;;;;8.80;1.00;;;;;;;14.62;100.00;100663.63;13005700;22;20053;-90
2022/09/15 14:24:30;;;;;;;7.72;0.70;;;;;;;15.04;100.00;100626.16;13043467;22;20003;-92
2022/09/15 14:29:30;;;;;;;5.15;0.75;;;;;;;15.31;100.00;100441.75;13042740;22;20069;-90
2022/09/15 14:34:40;;;;;;;6.05;0.80;;;;;;;17.14;100.00;100531.72;12924905;22;20002;-88
2022/09/15 14:39:48;;;;;;;4.50;0.85;;;;;;;16.84;100.00;100515.59;13004466;22;20388;-88
2022/09/15 14:44:49;;;;;;;4.18;0.73;;;;;;;15.79;100.00;100486.09;13015075;22;20248;-86
2022/09/15 14:50:09;;;;;;;6.50;0.90;;;;;;;15.63;100.00;100542.91;13081203;22;20400;-88
2022/09/15 14:55:14;;;;;;;2.28;0.60;;;;;;;15.85;100.00;100567.34;13111832;22;19999;-87
2022/09/15 15:00:18;;;;;;;7.35;0.70;;;;;;;15.45;100.00;100564.75;13107492;22;20056;-87
2022/09/15 15:05:42;;;;;;;4.53;0.65;;;;;;;15.08;100.00;100508.00;13106000;22;20002;-87
2022/09/15 15:10:42;;;;;;;3.85;0.85;;;;;;;15.20;100.00;100567.78;13109821;22;20019;-85
2022/09/15 15:15:43;;;;;;;1.35;0.50;;;;;;;14.39;100.00;100542.41;13066728;22;20033;-86
2022/09/15 15:20:50;;;;;;;2.17;0.40;;;;;;;13.97;100.00;100441.38;13078545;22;20340;-88
2022/09/15 15:25:50;;;;;;;;;;;;;;;15.37;100.00;100690.22;13081018;22;20018;-87
2022/09/15 15:30:51;;;;;;;3.90;0.57;;;;;;;13.35;100.00;100441.72;13087778;22;19898;-85
2022/09/15 15:36:07;;;;;;;5.65;0.77;;;;;;;13.70;100.00;100567.13;13097797;22;20333;-86
2022/09/15 15:41:13;;;;;;;7.55;1.40;;;;;;;13.52;100.00;100563.91;13097726;22;20029;-87
2022/09/15 15:46:14;;;;;;;7.90;1.07;;;;;;;12.68;100.00;100450.19;13070979;22;20045;-87
2022/09/15 15:51:14;;;;;;;4.55;0.90;;;;;;;13.76;100.00;100581.78;13094252;22;20009;-87
2022/09/15 15:56:16;;;;;;;9.85;1.60;;;;;;;13.45;100.00;100455.50;13097253;22;19995;-87
2022/09/15 16:01:17;;;;;;;6.35;1.33;;;;;;;14.54;100.00;100590.22;13096593;22;20010;-87
2022/09/15 16:06:17;;;;;;;4.88;1.15;;;;;;;15.00;100.00;100683.28;13097220;22;20068;-87
2022/09/15 16:11:19;;;;;;;4.32;1.02;;;;;;;14.07;100.00;100560.31;13072214;22;20010;-87
2022/09/15 16:16:21;;;;;;;5.07;1.10;;;;;;;12.49;100.00;100377.34;13097809;22;20006;-86
2022/09/15 16:21:37;;;;;;;6.72;1.30;;;;;;;13.88;100.00;100572.03;13072133;22;20416;-86
2022/09/15 16:26:38;;;;;;;5.22;1.60;;;;;;;14.11;100.00;100575.25;13097397;22;20038;-87
2022/09/15 16:31:38;;;;;;;6.07;1.30;;;;;;;14.06;100.00;100614.88;13095435;22;20077;-88
2022/09/15 16:36:39;;;;;;;6.72;0.90;;;;;;;14.44;100.00;100669.78;13069935;22;19998;-88
2022/09/15 16:41:39;;;;;;;4.65;0.73;;;;;;;13.07;100.00;100529.69;13071809;22;20063;-87
2022/09/15 16:46:40;;;;;;;8.52;1.05;;;;;;;12.81;100.00;100548.22;13076182;22;20022;-88
2022/09/15 16:51:40;;;;;;;8.77;1.75;;;;;;;12.75;100.00;100576.97;13091540;22;20452;-87
2022/09/15 16:56:41;;;;;;;9.63;2.25;;;;;;;12.75;100.00;100598.25;13103713;22;20014;-86
2022/09/15 17:01:42;;;;;;;3.92;1.15;;;;;;;12.67;100.00;100608.75;13063171;22;20010;-86
2022/09/15 17:06:42;;;;;;;7.18;1.15;;;;;;;12.77;100.00;100620.91;13078667;22;20034;-88
2022/09/15 17:11:43;;;;;;;4.63;0.80;;;;;;;12.45;100.00;100588.84;13104755;22;20003;-88
2022/09/15 17:16:46;;;;;;;9.15;1.20;;;;;;;11.94;100.00;100556.41;13103859;22;20029;-90
2022/09/15 17:21:46;;;;;;;8.85;1.27;;;;;;;12.11;100.00;100605.84;13050046;22;20017;-90
2022/09/15 17:26:50;;;;;;;8.20;1.17;;;;;;;11.56;100.00;100552.13;13051890;22;20356;-86
2022/09/15 17:31:51;;;;;;;7.03;1.17;;;;;;;12.17;100.00;100672.94;13085617;22;20010;-87
2022/09/15 17:36:51;;;;;;;10.52;1.30;;;;;;;10.94;100.00;100504.13;13087245;22;20063;-91
2022/09/15 17:41:52;;;;;;;6.70;1.10;;;;;;;11.79;100.00;100633.56;13112878;22;20367;-85
2022/09/15 17:46:53;;;;;;;5.85;0.90;;;;;;;10.46;100.00;100466.34;13043216;22;20014;-92
2022/09/15 17:51:53;;;;;;;5.03;0.88;;;;;;;11.43;100.00;100634.22;13061395;22;20007;-86
2022/09/15 17:56:54;;;;;;;5.38;0.88;;;;;;;10.37;100.00;100469.84;13089795;22;20083;-93
2022/09/15 18:01:55;;;;;;;3.67;0.70;;;;;;;10.50;100.00;100511.50;13086872;22;20006;-87
2022/09/15 18:06:55;;;;;;;10.18;2.65;;;;;;;10.44;100.00;100486.97;13114913;22;20018;-93
2022/09/15 18:11:56;;;;;;;2.67;0.80;;;;;;;10.56;100.00;100542.63;13084880;22;20013;-86
2022/09/15 18:16:57;;;;;;;7.25;1.05;;;;;;;11.55;100.00;100674.50;13064033;22;20002;-84
2022/09/15 18:21:57;;;;;;;9.10;1.10;;;;;;;10.30;100.00;100512.16;13081013;22;20029;-86
2022/09/15 18:26:58;;;;;;;9.90;1.33;;;;;;;11.49;100.00;100681.91;13058008;22;20068;-87
2022/09/15 18:32:01;;;;;;;8.18;2.22;;;;;;;10.21;100.00;100491.69;13078287;22;20058;-86
2022/09/15 18:37:03;;;;;;;9.57;1.67;;;;;;;11.08;100.00;100630.09;13065063;22;20010;-93
2022/09/15 18:42:04;;;;;;;5.00;0.98;;;;;;;10.41;100.00;100548.03;13058724;22;20006;-88
2022/09/15 18:47:05;;;;;;;6.93;1.30;;;;;;;11.11;100.00;100662.63;13069817;22;20018;-87
2022/09/15 18:52:05;;;;;;;7.03;1.20;;;;;;;10.33;100.00;100537.50;13031608;22;20127;-88
2022/09/15 18:57:08;;;;;;;6.40;1.10;;;;;;;10.19;100.00;100532.41;13063756;22;20005;-88
2022/09/15 19:02:14;;;;;;;20.02;2.15;;;;;;;11.59;100.00;100796.97;13089336;22;20003;-93
2022/09/15 19:08:14;;;;;;;;;;;;;;;;;;;;;
2022/09/15 19:14:00;;;;;;;10.70;1.27;;;;;;;11.34;100.00;100743.28;12764670;22;20019;-92
2022/09/15 19:19:02;;;;;;;8.03;1.30;;;;;;;9.96;100.00;100562.94;12968381;22;20007;-91
2022/09/15 19:24:03;;;;;;;3.97;1.45;;;;;;;11.38;100.00;100769.22;13084492;22;20245;-87
2022/09/15 19:29:05;;;;;;;7.13;0.88;;;;;;;9.78;100.00;100559.44;13085192;22;20014;-88
2022/09/15 19:34:05;;;;;;;6.05;1.00;;;;;;;9.67;100.00;100552.16;13109948;22;20082;-88
2022/09/15 19:39:07;;;;;;;4.10;1.20;;;;;;;9.29;100.00;100529.16;13083586;22;20010;-87
2022/09/15 19:44:07;;;;;;;11.18;1.95;;;;;;;10.00;100.00;100654.84;13114123;22;20018;-94
2022/09/15 19:49:08;;;;;;;8.68;1.63;;;;;;;9.52;100.00;100612.44;13013327;22;20010;-86
2022/09/15 19:54:09;;;;;;;7.07;2.30;;;;;;;9.72;100.00;100648.44;13046952;22;20377;-95
2022/09/15 19:59:10;;;;;;;12.73;3.10;;;;;;;9.22;100.00;100564.19;13052123;22;20003;-96
2022/09/15 20:04:10;;;;;;;17.52;3.20;;;;;;;9.83;100.00;100638.41;13021189;22;20076;-86
2022/09/15 20:09:11;;;;;;;10.48;2.85;;;;;;;8.83;100.00;100490.88;13046955;22;20492;-91
2022/09/15 20:14:12;;;;;;;10.05;2.83;;;;;;;9.60;100.00;100601.00;13019683;22;20003;-94
2022/09/15 20:19:13;;;;;;;6.65;1.50;;;;;;;9.75;100.00;100630.59;13038055;22;20448;-86
2022/09/15 20:24:16;;;;;;;10.90;1.38;;;;;;;9.58;100.00;100625.16;13010091;22;20009;-92
2022/09/15 20:29:17;;;;;;;5.43;0.80;;;;;;;9.04;100.00;100549.66;13020574;22;20017;-91
2022/09/15 20:34:18;;;;;;;3.10;1.13;;;;;;;10.11;100.00;100752.91;13017442;22;20009;-92
2022/09/15 20:39:21;;;;;;;6.50;0.98;;;;;;;8.90;100.00;100567.56;13047705;22;20003;-88
2022/09/15 20:44:21;;;;;;;3.67;1.30;;;;;;;8.95;100.00;100573.16;13022484;22;20002;-93
2022/09/15 20:49:22;;;;;;;13.82;4.85;;;;;;;9.15;100.00;100644.03;12754066;23;20025;-84
2022/09/15 20:54:22;;;;;;;17.42;10.75;;;;;;;9.21;100.00;100654.00;12751970;23;20013;-91
2022/09/15 20:59:24;;;;;;;12.77;4.13;;;;;;;8.52;100.00;100497.81;12859478;22;20008;-93
2022/09/15 21:04:25;;;;;;;7.43;2.75;;;;;;;10.11;100.00;100728.16;12815593;22;20001;-85
2022/09/15 21:09:26;;;;;;;9.40;1.95;;;;;;;9.35;100.00;100613.28;12860550;22;20454;-90
2022/09/15 21:14:26;;;;;;;9.45;2.10;;;;;;;9.44;100.00;100619.19;12835234;23;20016;-92
2022/09/15 21:19:27;;;;;;;10.57;2.15;;;;;;;9.09;100.00;100579.13;12850666;22;20430;-92
2022/09/15 21:24:27;;;;;;;9.55;2.20;;;;;;;8.62;100.00;100517.19;12857748;22;20063;-91
2022/09/15 21:29:28;;;;;;;7.93;1.70;;;;;;;8.71;100.00;100550.53;12848671;22;20076;-91
2022/09/15 21:34:30;;;;;;;9.35;2.10;;;;;;;9.82;100.00;100713.75;12860724;22;20045;-84
2022/09/15 21:39:30;;;;;;;13.95;1.88;;;;;;;9.35;100.00;100653.69;12857727;22;20378;-83
2022/09/15 21:44:31;;;;;;;8.98;2.28;;;;;;;10.15;100.00;100784.34;12825671;22;20013;-83
2022/09/15 21:49:32;;;;;;;11.00;5.30;;;;;;;9.50;100.00;100717.09;13101015;22;20045;-83
2022/09/15 21:54:32;;;;;;;14.00;5.07;;;;;;;10.19;100.00;100815.75;13115870;22;20105;-87
2022/09/15 21:59:33;;;;;;;10.25;3.15;;;;;;;10.08;100.00;100780.91;13118013;22;20002;-91
2022/09/15 22:04:34;;;;;;;11.23;1.98;;;;;;;10.07;100.00;100766.34;13089951;22;20007;-83
2022/09/15 22:09:34;;;;;;;6.78;1.73;;;;;;;9.27;100.00;100643.94;13111435;22;20502;-86
2022/09/15 22:14:35;;;;;;;7.30;1.92;;;;;;;8.82;100.00;100573.47;13090131;22;20327;-90
2022/09/15 22:19:35;;;;;;;11.43;1.60;;;;;;;9.74;100.00;100692.19;13115912;22;20431;-83
2022/09/15 22:24:36;;;;;;;8.55;1.90;;;;;;;9.11;100.00;100581.63;13143659;22;20003;-90
2022/09/15 22:29:36;;;;;;;4.78;1.42;;;;;;;9.40;100.00;100646.31;13115075;22;20014;-85
2022/09/15 22:34:37;;;;;;;6.55;1.92;;;;;;;9.01;100.00;100583.13;13119357;22;20033;-90
2022/09/15 22:39:38;;;;;;;9.80;1.77;;;;;;;9.65;100.00;100694.50;13090111;22;20007;-84
2022/09/15 22:44:38;;;;;;;7.53;1.75;;;;;;;9.51;100.00;100699.53;13138503;22;20400;-84
2022/09/15 22:49:39;;;;;;;10.77;1.90;;;;;;;9.36;100.00;100675.38;13114250;22;20125;-84
2022/09/15 22:54:39;;;;;;;7.28;1.92;;;;;;;8.93;100.00;100591.78;13086382;22;20009;-90
2022/09/15 22:59:40;;;;;;;6.50;2.42;;;;;;;9.16;100.00;100659.44;13088141;22;20006;-85
2022/09/15 23:04:40;;;;;;;9.13;2.55;;;;;;;8.59;100.00;100549.78;13115871;22;19994;-91
2022/09/15 23:09:41;;;;;;;14.23;6.72;;;;;;;9.28;100.00;100670.31;13092975;22;20325;-85